sensor_id;sensor_type;location;lat;lon;timestamp;P1;durP1;ratioP1;P2;durP2;ratioP2
1467;SDS011;727;48.892;9.544;2023-02-28T00:01:53;5.00;;;3.25;;
1467;SDS011;727;48.892;9.544;2023-02-28T00:04:19;4.68;;;3.75;;
1467;SDS011;727;48.892;9.544;2023-02-28T00:06:46;4.65;;;4.10;;
1467;SDS011;727;48.892;9.544;2023-02-28T00:09:13;5.28;;;3.60;;
1467;SDS011;727;48.892;9.544;2023-02-28T00:11:40;4.53;;;3.90;;
1467;SDS011;727;48.892;9.544;2023-02-28T00:14:08;6.03;;;3.40;;
1467;SDS011;727;48.892;9.544;2023-02-28T00:16:35;4.78;;;3.90;;
1467;SDS011;727;48.892;9.544;2023-02-28T00:19:02;6.68;;;4.43;;
1467;SDS011;727;48.892;9.544;2023-02-28T00:21:28;4.90;;;3.97;;
1467;SDS011;727;48.892;9.544;2023-02-28T00:23:55;5.47;;;4.80;;
1467;SDS011;727;48.892;9.544;2023-02-28T00:26:22;4.10;;;3.70;;
1467;SDS011;727;48.892;9.544;2023-02-28T00:28:49;6.18;;;4.97;;
1467;SDS011;727;48.892;9.544;2023-02-28T00:31:19;4.30;;;3.60;;
1467;SDS011;727;48.892;9.544;2023-02-28T00:33:46;4.15;;;3.75;;
1467;SDS011;727;48.892;9.544;2023-02-28T00:36:12;6.82;;;4.35;;
1467;SDS011;727;48.892;9.544;2023-02-28T00:38:39;7.35;;;4.57;;
1467;SDS011;727;48.892;9.544;2023-02-28T00:41:07;4.45;;;4.05;;
1467;SDS011;727;48.892;9.544;2023-02-28T00:43:35;5.30;;;4.35;;
1467;SDS011;727;48.892;9.544;2023-02-28T00:46:04;7.78;;;4.25;;
1467;SDS011;727;48.892;9.544;2023-02-28T00:48:32;3.97;;;3.67;;
1467;SDS011;727;48.892;9.544;2023-02-28T00:50:59;4.50;;;4.00;;
1467;SDS011;727;48.892;9.544;2023-02-28T00:53:26;4.15;;;3.83;;
1467;SDS011;727;48.892;9.544;2023-02-28T00:55:53;5.63;;;3.65;;
1467;SDS011;727;48.892;9.544;2023-02-28T00:58:20;5.18;;;4.78;;
1467;SDS011;727;48.892;9.544;2023-02-28T01:00:47;5.70;;;3.83;;
1467;SDS011;727;48.892;9.544;2023-02-28T01:03:14;6.22;;;4.05;;
1467;SDS011;727;48.892;9.544;2023-02-28T01:05:44;5.95;;;5.00;;
1467;SDS011;727;48.892;9.544;2023-02-28T01:08:11;5.15;;;4.65;;
1467;SDS011;727;48.892;9.544;2023-02-28T01:10:39;4.78;;;4.30;;
1467;SDS011;727;48.892;9.544;2023-02-28T01:13:06;7.82;;;3.80;;
1467;SDS011;727;48.892;9.544;2023-02-28T01:15:33;4.85;;;4.30;;
1467;SDS011;727;48.892;9.544;2023-02-28T01:17:59;5.75;;;4.47;;
1467;SDS011;727;48.892;9.544;2023-02-28T01:20:26;5.55;;;4.43;;
1467;SDS011;727;48.892;9.544;2023-02-28T01:22:54;5.70;;;5.07;;
1467;SDS011;727;48.892;9.544;2023-02-28T01:25:21;6.47;;;4.50;;
1467;SDS011;727;48.892;9.544;2023-02-28T01:27:48;6.60;;;4.85;;
1467;SDS011;727;48.892;9.544;2023-02-28T01:30:15;4.78;;;4.38;;
1467;SDS011;727;48.892;9.544;2023-02-28T01:32:42;5.32;;;4.93;;
1467;SDS011;727;48.892;9.544;2023-02-28T01:35:08;5.07;;;4.68;;
1467;SDS011;727;48.892;9.544;2023-02-28T01:37:35;4.97;;;3.92;;
1467;SDS011;727;48.892;9.544;2023-02-28T01:40:04;4.60;;;4.20;;
1467;SDS011;727;48.892;9.544;2023-02-28T01:42:32;5.05;;;4.65;;
1467;SDS011;727;48.892;9.544;2023-02-28T01:45:07;7.03;;;3.95;;
1467;SDS011;727;48.892;9.544;2023-02-28T01:47:45;4.63;;;4.20;;
1467;SDS011;727;48.892;9.544;2023-02-28T01:50:14;10.05;;;4.53;;
1467;SDS011;727;48.892;9.544;2023-02-28T01:52:43;5.50;;;4.93;;
1467;SDS011;727;48.892;9.544;2023-02-28T01:55:13;6.68;;;4.88;;
1467;SDS011;727;48.892;9.544;2023-02-28T01:57:43;5.47;;;4.97;;
1467;SDS011;727;48.892;9.544;2023-02-28T02:00:15;5.70;;;5.20;;
1467;SDS011;727;48.892;9.544;2023-02-28T02:02:44;4.85;;;4.45;;
1467;SDS011;727;48.892;9.544;2023-02-28T02:05:19;8.25;;;5.20;;
1467;SDS011;727;48.892;9.544;2023-02-28T02:07:49;11.07;;;5.40;;
1467;SDS011;727;48.892;9.544;2023-02-28T02:10:20;9.88;;;4.88;;
1467;SDS011;727;48.892;9.544;2023-02-28T02:13:00;9.70;;;6.45;;
1467;SDS011;727;48.892;9.544;2023-02-28T02:15:34;17.15;;;9.02;;
1467;SDS011;727;48.892;9.544;2023-02-28T02:18:09;8.27;;;6.50;;
1467;SDS011;727;48.892;9.544;2023-02-28T02:21:10;15.20;;;8.60;;
1467;SDS011;727;48.892;9.544;2023-02-28T02:23:58;5.53;;;5.03;;
1467;SDS011;727;48.892;9.544;2023-02-28T02:26:46;5.50;;;4.80;;
1467;SDS011;727;48.892;9.544;2023-02-28T02:29:30;8.00;;;6.38;;
1467;SDS011;727;48.892;9.544;2023-02-28T02:35:17;6.00;;;5.60;;
1467;SDS011;727;48.892;9.544;2023-02-28T02:37:51;8.57;;;5.43;;
1467;SDS011;727;48.892;9.544;2023-02-28T02:40:27;8.32;;;5.35;;
1467;SDS011;727;48.892;9.544;2023-02-28T02:43:00;6.10;;;4.90;;
1467;SDS011;727;48.892;9.544;2023-02-28T02:45:31;6.57;;;5.20;;
1467;SDS011;727;48.892;9.544;2023-02-28T02:48:02;5.70;;;5.18;;
1467;SDS011;727;48.892;9.544;2023-02-28T02:50:34;9.20;;;5.10;;
1467;SDS011;727;48.892;9.544;2023-02-28T02:53:05;8.80;;;6.03;;
1467;SDS011;727;48.892;9.544;2023-02-28T02:55:36;10.30;;;5.85;;
1467;SDS011;727;48.892;9.544;2023-02-28T02:58:07;6.50;;;5.90;;
1467;SDS011;727;48.892;9.544;2023-02-28T03:00:37;9.55;;;6.45;;
1467;SDS011;727;48.892;9.544;2023-02-28T03:03:08;6.25;;;5.65;;
1467;SDS011;727;48.892;9.544;2023-02-28T03:05:41;6.60;;;5.10;;
1467;SDS011;727;48.892;9.544;2023-02-28T03:08:12;6.50;;;5.70;;
1467;SDS011;727;48.892;9.544;2023-02-28T03:10:40;9.15;;;6.70;;
1467;SDS011;727;48.892;9.544;2023-02-28T03:13:11;6.00;;;5.53;;
1467;SDS011;727;48.892;9.544;2023-02-28T03:15:52;6.15;;;5.55;;
1467;SDS011;727;48.892;9.544;2023-02-28T03:18:29;6.38;;;5.28;;
1467;SDS011;727;48.892;9.544;2023-02-28T03:21:03;7.75;;;5.32;;
1467;SDS011;727;48.892;9.544;2023-02-28T03:23:41;10.40;;;5.50;;
1467;SDS011;727;48.892;9.544;2023-02-28T03:26:12;9.38;;;6.60;;
1467;SDS011;727;48.892;9.544;2023-02-28T03:28:47;6.30;;;5.80;;
1467;SDS011;727;48.892;9.544;2023-02-28T03:31:21;11.38;;;6.53;;
1467;SDS011;727;48.892;9.544;2023-02-28T03:33:54;9.05;;;5.35;;
1467;SDS011;727;48.892;9.544;2023-02-28T03:36:27;6.38;;;5.70;;
1467;SDS011;727;48.892;9.544;2023-02-28T03:38:58;7.22;;;6.22;;
1467;SDS011;727;48.892;9.544;2023-02-28T03:41:29;7.97;;;7.25;;
1467;SDS011;727;48.892;9.544;2023-02-28T03:44:01;8.23;;;6.47;;
1467;SDS011;727;48.892;9.544;2023-02-28T03:46:31;10.45;;;6.32;;
1467;SDS011;727;48.892;9.544;2023-02-28T03:49:01;8.65;;;5.75;;
1467;SDS011;727;48.892;9.544;2023-02-28T03:51:34;9.48;;;6.72;;
1467;SDS011;727;48.892;9.544;2023-02-28T03:54:04;7.20;;;6.20;;
1467;SDS011;727;48.892;9.544;2023-02-28T03:56:37;6.57;;;5.90;;
1467;SDS011;727;48.892;9.544;2023-02-28T03:59:08;10.60;;;6.53;;
1467;SDS011;727;48.892;9.544;2023-02-28T04:01:40;6.70;;;6.07;;
1467;SDS011;727;48.892;9.544;2023-02-28T04:04:09;9.32;;;6.05;;
1467;SDS011;727;48.892;9.544;2023-02-28T04:06:39;6.32;;;5.68;;
1467;SDS011;727;48.892;9.544;2023-02-28T04:09:07;7.72;;;6.65;;
1467;SDS011;727;48.892;9.544;2023-02-28T04:11:36;9.25;;;6.00;;
1467;SDS011;727;48.892;9.544;2023-02-28T04:14:05;7.45;;;6.55;;
1467;SDS011;727;48.892;9.544;2023-02-28T04:16:33;6.57;;;5.97;;
1467;SDS011;727;48.892;9.544;2023-02-28T04:19:01;9.05;;;7.18;;
1467;SDS011;727;48.892;9.544;2023-02-28T04:21:30;6.03;;;5.50;;
1467;SDS011;727;48.892;9.544;2023-02-28T04:23:58;10.15;;;7.53;;
1467;SDS011;727;48.892;9.544;2023-02-28T04:26:25;7.07;;;6.38;;
1467;SDS011;727;48.892;9.544;2023-02-28T04:28:54;8.18;;;7.07;;
1467;SDS011;727;48.892;9.544;2023-02-28T04:31:21;7.82;;;6.30;;
1467;SDS011;727;48.892;9.544;2023-02-28T04:33:48;9.25;;;7.65;;
1467;SDS011;727;48.892;9.544;2023-02-28T04:36:15;8.82;;;7.47;;
1467;SDS011;727;48.892;9.544;2023-02-28T04:38:42;10.05;;;7.85;;
1467;SDS011;727;48.892;9.544;2023-02-28T04:41:14;10.93;;;7.43;;
1467;SDS011;727;48.892;9.544;2023-02-28T04:43:41;9.63;;;7.47;;
1467;SDS011;727;48.892;9.544;2023-02-28T04:46:09;6.80;;;6.20;;
1467;SDS011;727;48.892;9.544;2023-02-28T04:48:37;7.63;;;6.82;;
1467;SDS011;727;48.892;9.544;2023-02-28T04:51:06;6.65;;;5.95;;
1467;SDS011;727;48.892;9.544;2023-02-28T04:53:36;8.40;;;7.13;;
1467;SDS011;727;48.892;9.544;2023-02-28T04:56:07;8.02;;;7.18;;
1467;SDS011;727;48.892;9.544;2023-02-28T04:58:37;8.60;;;7.20;;
1467;SDS011;727;48.892;9.544;2023-02-28T05:01:05;8.90;;;6.80;;
1467;SDS011;727;48.892;9.544;2023-02-28T05:03:37;9.65;;;7.25;;
1467;SDS011;727;48.892;9.544;2023-02-28T05:06:05;12.25;;;7.53;;
1467;SDS011;727;48.892;9.544;2023-02-28T05:08:32;10.05;;;8.30;;
1467;SDS011;727;48.892;9.544;2023-02-28T05:10:59;7.80;;;7.18;;
1467;SDS011;727;48.892;9.544;2023-02-28T05:13:26;23.50;;;16.27;;
1467;SDS011;727;48.892;9.544;2023-02-28T05:15:55;14.48;;;8.38;;
1467;SDS011;727;48.892;9.544;2023-02-28T05:18:22;13.68;;;8.68;;
1467;SDS011;727;48.892;9.544;2023-02-28T05:20:48;10.40;;;7.85;;
1467;SDS011;727;48.892;9.544;2023-02-28T05:23:15;9.77;;;6.70;;
1467;SDS011;727;48.892;9.544;2023-02-28T05:25:45;10.15;;;8.40;;
1467;SDS011;727;48.892;9.544;2023-02-28T05:28:12;7.78;;;6.32;;
1467;SDS011;727;48.892;9.544;2023-02-28T05:30:39;8.45;;;7.32;;
1467;SDS011;727;48.892;9.544;2023-02-28T05:33:10;9.10;;;6.25;;
1467;SDS011;727;48.892;9.544;2023-02-28T05:35:38;9.95;;;7.18;;
1467;SDS011;727;48.892;9.544;2023-02-28T05:38:05;10.95;;;7.43;;
1467;SDS011;727;48.892;9.544;2023-02-28T05:40:33;11.50;;;7.28;;
1467;SDS011;727;48.892;9.544;2023-02-28T05:43:00;9.15;;;7.00;;
1467;SDS011;727;48.892;9.544;2023-02-28T05:45:27;10.68;;;8.18;;
1467;SDS011;727;48.892;9.544;2023-02-28T05:47:54;7.88;;;7.07;;
1467;SDS011;727;48.892;9.544;2023-02-28T05:50:23;8.50;;;7.80;;
1467;SDS011;727;48.892;9.544;2023-02-28T05:52:49;9.43;;;7.95;;
1467;SDS011;727;48.892;9.544;2023-02-28T05:55:17;12.80;;;8.90;;
1467;SDS011;727;48.892;9.544;2023-02-28T05:57:44;18.02;;;8.48;;
1467;SDS011;727;48.892;9.544;2023-02-28T06:00:11;10.63;;;8.30;;
1467;SDS011;727;48.892;9.544;2023-02-28T06:02:40;11.90;;;7.55;;
1467;SDS011;727;48.892;9.544;2023-02-28T06:05:08;9.67;;;7.33;;
1467;SDS011;727;48.892;9.544;2023-02-28T06:07:41;11.65;;;8.65;;
1467;SDS011;727;48.892;9.544;2023-02-28T06:10:11;14.73;;;9.82;;
1467;SDS011;727;48.892;9.544;2023-02-28T06:12:39;12.35;;;8.95;;
1467;SDS011;727;48.892;9.544;2023-02-28T06:15:07;13.85;;;9.20;;
1467;SDS011;727;48.892;9.544;2023-02-28T06:17:37;10.90;;;7.88;;
1467;SDS011;727;48.892;9.544;2023-02-28T06:20:05;12.02;;;8.75;;
1467;SDS011;727;48.892;9.544;2023-02-28T06:22:34;11.27;;;8.05;;
1467;SDS011;727;48.892;9.544;2023-02-28T06:25:03;8.82;;;7.68;;
1467;SDS011;727;48.892;9.544;2023-02-28T06:27:30;14.48;;;8.38;;
1467;SDS011;727;48.892;9.544;2023-02-28T06:29:57;13.02;;;7.97;;
1467;SDS011;727;48.892;9.544;2023-02-28T06:32:24;10.45;;;8.02;;
1467;SDS011;727;48.892;9.544;2023-02-28T06:34:51;9.55;;;8.50;;
1467;SDS011;727;48.892;9.544;2023-02-28T06:37:18;18.00;;;9.25;;
1467;SDS011;727;48.892;9.544;2023-02-28T06:39:45;15.55;;;9.68;;
1467;SDS011;727;48.892;9.544;2023-02-28T06:42:13;10.88;;;8.45;;
1467;SDS011;727;48.892;9.544;2023-02-28T06:44:40;12.13;;;8.80;;
1467;SDS011;727;48.892;9.544;2023-02-28T06:47:08;12.20;;;9.13;;
1467;SDS011;727;48.892;9.544;2023-02-28T06:49:35;15.45;;;9.07;;
1467;SDS011;727;48.892;9.544;2023-02-28T06:52:02;10.02;;;8.75;;
1467;SDS011;727;48.892;9.544;2023-02-28T06:54:29;9.82;;;7.60;;
1467;SDS011;727;48.892;9.544;2023-02-28T06:56:57;12.50;;;9.00;;
1467;SDS011;727;48.892;9.544;2023-02-28T06:59:25;12.15;;;10.50;;
1467;SDS011;727;48.892;9.544;2023-02-28T07:01:52;11.45;;;8.48;;
1467;SDS011;727;48.892;9.544;2023-02-28T07:04:20;21.65;;;11.27;;
1467;SDS011;727;48.892;9.544;2023-02-28T07:06:46;17.38;;;11.25;;
1467;SDS011;727;48.892;9.544;2023-02-28T07:09:13;15.75;;;9.32;;
1467;SDS011;727;48.892;9.544;2023-02-28T07:11:40;14.45;;;9.90;;
1467;SDS011;727;48.892;9.544;2023-02-28T07:14:08;10.48;;;8.30;;
1467;SDS011;727;48.892;9.544;2023-02-28T07:16:36;9.45;;;8.65;;
1467;SDS011;727;48.892;9.544;2023-02-28T07:19:03;9.38;;;7.82;;
1467;SDS011;727;48.892;9.544;2023-02-28T07:21:30;9.38;;;8.35;;
1467;SDS011;727;48.892;9.544;2023-02-28T07:23:56;10.77;;;8.43;;
1467;SDS011;727;48.892;9.544;2023-02-28T07:26:23;9.10;;;7.45;;
1467;SDS011;727;48.892;9.544;2023-02-28T07:28:50;13.10;;;9.45;;
1467;SDS011;727;48.892;9.544;2023-02-28T07:31:18;12.05;;;8.65;;
1467;SDS011;727;48.892;9.544;2023-02-28T07:33:46;15.60;;;8.88;;
1467;SDS011;727;48.892;9.544;2023-02-28T07:36:14;12.05;;;9.65;;
1467;SDS011;727;48.892;9.544;2023-02-28T07:38:43;15.00;;;9.10;;
1467;SDS011;727;48.892;9.544;2023-02-28T07:41:13;16.85;;;8.60;;
1467;SDS011;727;48.892;9.544;2023-02-28T07:43:40;13.32;;;8.85;;
1467;SDS011;727;48.892;9.544;2023-02-28T07:46:07;11.30;;;9.85;;
1467;SDS011;727;48.892;9.544;2023-02-28T07:48:36;11.70;;;8.95;;
1467;SDS011;727;48.892;9.544;2023-02-28T07:51:05;17.13;;;9.63;;
1467;SDS011;727;48.892;9.544;2023-02-28T07:53:32;10.23;;;8.75;;
1467;SDS011;727;48.892;9.544;2023-02-28T07:55:59;11.45;;;9.38;;
1467;SDS011;727;48.892;9.544;2023-02-28T07:58:28;12.45;;;8.85;;
1467;SDS011;727;48.892;9.544;2023-02-28T08:00:56;12.00;;;10.57;;
1467;SDS011;727;48.892;9.544;2023-02-28T08:03:30;12.80;;;9.77;;
1467;SDS011;727;48.892;9.544;2023-02-28T08:05:57;8.90;;;8.00;;
1467;SDS011;727;48.892;9.544;2023-02-28T08:08:25;10.23;;;8.75;;
1467;SDS011;727;48.892;9.544;2023-02-28T08:10:54;12.80;;;9.40;;
1467;SDS011;727;48.892;9.544;2023-02-28T08:13:20;12.18;;;9.43;;
1467;SDS011;727;48.892;9.544;2023-02-28T08:15:47;14.82;;;8.95;;
1467;SDS011;727;48.892;9.544;2023-02-28T08:18:14;10.70;;;9.57;;
1467;SDS011;727;48.892;9.544;2023-02-28T08:20:41;12.90;;;9.63;;
1467;SDS011;727;48.892;9.544;2023-02-28T08:23:08;10.15;;;8.02;;
1467;SDS011;727;48.892;9.544;2023-02-28T08:25:36;9.60;;;7.97;;
1467;SDS011;727;48.892;9.544;2023-02-28T08:28:03;12.90;;;9.45;;
1467;SDS011;727;48.892;9.544;2023-02-28T08:30:30;35.22;;;21.70;;
1467;SDS011;727;48.892;9.544;2023-02-28T08:32:57;14.45;;;9.98;;
1467;SDS011;727;48.892;9.544;2023-02-28T08:35:24;9.15;;;7.35;;
1467;SDS011;727;48.892;9.544;2023-02-28T08:37:53;9.27;;;8.27;;
1467;SDS011;727;48.892;9.544;2023-02-28T08:40:20;12.45;;;10.30;;
1467;SDS011;727;48.892;9.544;2023-02-28T08:42:50;13.13;;;9.45;;
1467;SDS011;727;48.892;9.544;2023-02-28T08:45:18;14.90;;;9.27;;
1467;SDS011;727;48.892;9.544;2023-02-28T08:47:45;10.80;;;9.10;;
1467;SDS011;727;48.892;9.544;2023-02-28T08:50:12;13.98;;;9.60;;
1467;SDS011;727;48.892;9.544;2023-02-28T08:52:41;12.57;;;8.73;;
1467;SDS011;727;48.892;9.544;2023-02-28T08:55:12;10.85;;;8.68;;
1467;SDS011;727;48.892;9.544;2023-02-28T08:57:39;13.32;;;9.70;;
1467;SDS011;727;48.892;9.544;2023-02-28T09:00:08;16.17;;;9.90;;
1467;SDS011;727;48.892;9.544;2023-02-28T09:02:38;10.93;;;9.00;;
1467;SDS011;727;48.892;9.544;2023-02-28T09:05:08;12.18;;;9.63;;
1467;SDS011;727;48.892;9.544;2023-02-28T09:07:35;12.90;;;10.63;;
1467;SDS011;727;48.892;9.544;2023-02-28T09:10:02;13.05;;;9.88;;
1467;SDS011;727;48.892;9.544;2023-02-28T09:12:32;12.55;;;9.18;;
1467;SDS011;727;48.892;9.544;2023-02-28T09:15:00;13.82;;;10.07;;
1467;SDS011;727;48.892;9.544;2023-02-28T09:17:29;17.10;;;9.40;;
1467;SDS011;727;48.892;9.544;2023-02-28T09:19:58;17.23;;;10.85;;
1467;SDS011;727;48.892;9.544;2023-02-28T09:22:25;10.57;;;9.48;;
1467;SDS011;727;48.892;9.544;2023-02-28T09:24:51;12.50;;;9.75;;
1467;SDS011;727;48.892;9.544;2023-02-28T09:27:18;13.98;;;10.75;;
1467;SDS011;727;48.892;9.544;2023-02-28T09:29:45;13.68;;;9.77;;
1467;SDS011;727;48.892;9.544;2023-02-28T09:32:12;11.80;;;9.25;;
1467;SDS011;727;48.892;9.544;2023-02-28T09:34:40;11.90;;;9.23;;
1467;SDS011;727;48.892;9.544;2023-02-28T09:37:06;10.20;;;8.32;;
1467;SDS011;727;48.892;9.544;2023-02-28T09:39:33;11.27;;;9.50;;
1467;SDS011;727;48.892;9.544;2023-02-28T09:42:04;12.68;;;9.27;;
1467;SDS011;727;48.892;9.544;2023-02-28T09:44:32;12.50;;;9.15;;
1467;SDS011;727;48.892;9.544;2023-02-28T09:47:05;18.83;;;15.85;;
1467;SDS011;727;48.892;9.544;2023-02-28T09:49:41;24.50;;;17.58;;
1467;SDS011;727;48.892;9.544;2023-02-28T09:52:12;10.50;;;9.00;;
1467;SDS011;727;48.892;9.544;2023-02-28T09:54:42;11.70;;;9.55;;
1467;SDS011;727;48.892;9.544;2023-02-28T09:57:13;13.30;;;10.63;;
1467;SDS011;727;48.892;9.544;2023-02-28T09:59:49;10.27;;;9.27;;
1467;SDS011;727;48.892;9.544;2023-02-28T10:02:35;12.27;;;9.30;;
1467;SDS011;727;48.892;9.544;2023-02-28T10:05:14;14.63;;;11.18;;
1467;SDS011;727;48.892;9.544;2023-02-28T10:07:47;12.90;;;10.23;;
1467;SDS011;727;48.892;9.544;2023-02-28T10:10:23;12.45;;;10.50;;
1467;SDS011;727;48.892;9.544;2023-02-28T10:12:56;11.70;;;10.48;;
1467;SDS011;727;48.892;9.544;2023-02-28T10:15:26;12.60;;;10.43;;
1467;SDS011;727;48.892;9.544;2023-02-28T10:17:56;12.93;;;9.90;;
1467;SDS011;727;48.892;9.544;2023-02-28T10:20:29;12.05;;;9.25;;
1467;SDS011;727;48.892;9.544;2023-02-28T10:23:02;11.57;;;10.13;;
1467;SDS011;727;48.892;9.544;2023-02-28T10:25:36;13.70;;;10.18;;
1467;SDS011;727;48.892;9.544;2023-02-28T10:28:10;15.55;;;10.30;;
1467;SDS011;727;48.892;9.544;2023-02-28T10:30:40;14.48;;;11.73;;
1467;SDS011;727;48.892;9.544;2023-02-28T10:33:14;11.18;;;10.02;;
1467;SDS011;727;48.892;9.544;2023-02-28T10:35:46;11.85;;;9.82;;
1467;SDS011;727;48.892;9.544;2023-02-28T10:38:15;13.82;;;10.23;;
1467;SDS011;727;48.892;9.544;2023-02-28T10:40:51;11.45;;;10.15;;
1467;SDS011;727;48.892;9.544;2023-02-28T10:43:29;17.02;;;9.73;;
1467;SDS011;727;48.892;9.544;2023-02-28T10:45:59;18.60;;;10.75;;
1467;SDS011;727;48.892;9.544;2023-02-28T10:49:02;11.10;;;8.98;;
1467;SDS011;727;48.892;9.544;2023-02-28T10:51:36;10.07;;;9.00;;
1467;SDS011;727;48.892;9.544;2023-02-28T10:54:04;10.48;;;8.90;;
1467;SDS011;727;48.892;9.544;2023-02-28T10:56:31;9.82;;;8.40;;
1467;SDS011;727;48.892;9.544;2023-02-28T10:58:59;13.32;;;8.95;;
1467;SDS011;727;48.892;9.544;2023-02-28T11:01:35;11.15;;;9.45;;
1467;SDS011;727;48.892;9.544;2023-02-28T11:04:16;9.75;;;8.60;;
1467;SDS011;727;48.892;9.544;2023-02-28T11:06:47;12.73;;;8.70;;
1467;SDS011;727;48.892;9.544;2023-02-28T11:09:22;10.53;;;9.20;;
1467;SDS011;727;48.892;9.544;2023-02-28T11:11:54;12.13;;;9.97;;
1467;SDS011;727;48.892;9.544;2023-02-28T11:14:21;9.63;;;8.50;;
1467;SDS011;727;48.892;9.544;2023-02-28T11:16:51;9.83;;;8.87;;
1467;SDS011;727;48.892;9.544;2023-02-28T11:19:20;9.60;;;8.60;;
1467;SDS011;727;48.892;9.544;2023-02-28T11:21:54;9.40;;;8.43;;
1467;SDS011;727;48.892;9.544;2023-02-28T11:24:24;9.53;;;8.63;;
1467;SDS011;727;48.892;9.544;2023-02-28T11:26:54;9.83;;;8.87;;
1467;SDS011;727;48.892;9.544;2023-02-28T11:29:23;11.77;;;9.70;;
1467;SDS011;727;48.892;9.544;2023-02-28T11:32:01;12.02;;;8.80;;
1467;SDS011;727;48.892;9.544;2023-02-28T11:34:38;9.88;;;8.88;;
1467;SDS011;727;48.892;9.544;2023-02-28T11:37:11;12.48;;;9.65;;
1467;SDS011;727;48.892;9.544;2023-02-28T11:39:41;10.43;;;9.32;;
1467;SDS011;727;48.892;9.544;2023-02-28T11:42:29;12.70;;;10.75;;
1467;SDS011;727;48.892;9.544;2023-02-28T11:45:16;18.33;;;13.25;;
1467;SDS011;727;48.892;9.544;2023-02-28T11:47:56;11.27;;;8.80;;
1467;SDS011;727;48.892;9.544;2023-02-28T11:50:42;10.05;;;8.77;;
1467;SDS011;727;48.892;9.544;2023-02-28T11:53:22;9.85;;;8.52;;
1467;SDS011;727;48.892;9.544;2023-02-28T11:56:05;9.65;;;8.75;;
1467;SDS011;727;48.892;9.544;2023-02-28T11:58:38;10.20;;;9.25;;
1467;SDS011;727;48.892;9.544;2023-02-28T12:01:19;8.95;;;8.07;;
1467;SDS011;727;48.892;9.544;2023-02-28T12:03:58;9.63;;;8.63;;
1467;SDS011;727;48.892;9.544;2023-02-28T12:06:38;11.10;;;9.27;;
1467;SDS011;727;48.892;9.544;2023-02-28T12:09:18;10.97;;;9.77;;
1467;SDS011;727;48.892;9.544;2023-02-28T12:11:55;10.43;;;8.43;;
1467;SDS011;727;48.892;9.544;2023-02-28T12:14:30;11.93;;;8.83;;
1467;SDS011;727;48.892;9.544;2023-02-28T12:17:24;13.90;;;10.53;;
1467;SDS011;727;48.892;9.544;2023-02-28T12:20:02;9.70;;;8.33;;
1467;SDS011;727;48.892;9.544;2023-02-28T12:22:35;10.17;;;9.00;;
1467;SDS011;727;48.892;9.544;2023-02-28T12:25:17;10.20;;;9.20;;
1467;SDS011;727;48.892;9.544;2023-02-28T12:27:59;11.60;;;8.90;;
1467;SDS011;727;48.892;9.544;2023-02-28T12:30:28;10.37;;;8.60;;
1467;SDS011;727;48.892;9.544;2023-02-28T12:32:58;12.00;;;10.07;;
1467;SDS011;727;48.892;9.544;2023-02-28T12:35:32;15.63;;;9.30;;
1467;SDS011;727;48.892;9.544;2023-02-28T12:38:02;8.90;;;8.10;;
1467;SDS011;727;48.892;9.544;2023-02-28T12:40:45;8.87;;;8.00;;
1467;SDS011;727;48.892;9.544;2023-02-28T12:43:17;12.23;;;9.03;;
1467;SDS011;727;48.892;9.544;2023-02-28T12:45:48;12.93;;;8.40;;
1467;SDS011;727;48.892;9.544;2023-02-28T12:48:20;11.33;;;8.40;;
1467;SDS011;727;48.892;9.544;2023-02-28T12:50:52;10.50;;;9.40;;
1467;SDS011;727;48.892;9.544;2023-02-28T12:53:23;10.20;;;8.70;;
1467;SDS011;727;48.892;9.544;2023-02-28T12:55:56;9.43;;;8.53;;
1467;SDS011;727;48.892;9.544;2023-02-28T12:58:36;11.13;;;10.03;;
1467;SDS011;727;48.892;9.544;2023-02-28T13:01:12;14.00;;;8.20;;
1467;SDS011;727;48.892;9.544;2023-02-28T13:04:04;10.70;;;9.70;;
1467;SDS011;727;48.892;9.544;2023-02-28T13:07:07;9.40;;;7.70;;
1467;SDS011;727;48.892;9.544;2023-02-28T13:09:51;10.63;;;8.97;;
1467;SDS011;727;48.892;9.544;2023-02-28T13:12:20;9.97;;;9.07;;
1467;SDS011;727;48.892;9.544;2023-02-28T13:14:48;10.47;;;8.80;;
1467;SDS011;727;48.892;9.544;2023-02-28T13:17:26;11.07;;;9.97;;
1467;SDS011;727;48.892;9.544;2023-02-28T13:19:58;11.65;;;8.55;;
1467;SDS011;727;48.892;9.544;2023-02-28T13:22:39;12.90;;;9.77;;
1467;SDS011;727;48.892;9.544;2023-02-28T13:34:42;9.87;;;8.87;;
1467;SDS011;727;48.892;9.544;2023-02-28T13:37:47;11.50;;;9.37;;
1467;SDS011;727;48.892;9.544;2023-02-28T13:40:27;9.47;;;8.53;;
1467;SDS011;727;48.892;9.544;2023-02-28T13:43:01;10.80;;;9.70;;
1467;SDS011;727;48.892;9.544;2023-02-28T13:45:29;10.70;;;9.70;;
1467;SDS011;727;48.892;9.544;2023-02-28T13:48:03;13.10;;;10.47;;
1467;SDS011;727;48.892;9.544;2023-02-28T13:50:36;19.80;;;8.90;;
1467;SDS011;727;48.892;9.544;2023-02-28T13:53:27;12.00;;;8.90;;
1467;SDS011;727;48.892;9.544;2023-02-28T13:56:10;9.17;;;8.37;;
1467;SDS011;727;48.892;9.544;2023-02-28T13:58:53;10.60;;;9.50;;
1467;SDS011;727;48.892;9.544;2023-02-28T14:01:30;12.40;;;10.57;;
1467;SDS011;727;48.892;9.544;2023-02-28T14:04:27;12.40;;;9.98;;
1467;SDS011;727;48.892;9.544;2023-02-28T14:07:18;9.80;;;8.63;;
1467;SDS011;727;48.892;9.544;2023-02-28T14:09:49;11.75;;;10.65;;
1467;SDS011;727;48.892;9.544;2023-02-28T14:15:39;12.85;;;11.15;;
1467;SDS011;727;48.892;9.544;2023-02-28T14:18:27;14.00;;;10.95;;
1467;SDS011;727;48.892;9.544;2023-02-28T14:21:08;11.50;;;10.30;;
1467;SDS011;727;48.892;9.544;2023-02-28T14:26:54;13.00;;;11.00;;
1467;SDS011;727;48.892;9.544;2023-02-28T14:29:33;12.00;;;10.70;;
1467;SDS011;727;48.892;9.544;2023-02-28T14:32:21;13.38;;;11.55;;
1467;SDS011;727;48.892;9.544;2023-02-28T14:34:54;11.65;;;9.70;;
1467;SDS011;727;48.892;9.544;2023-02-28T14:37:27;12.55;;;10.32;;
1467;SDS011;727;48.892;9.544;2023-02-28T14:39:56;13.00;;;10.13;;
1467;SDS011;727;48.892;9.544;2023-02-28T14:42:39;13.02;;;10.70;;
1467;SDS011;727;48.892;9.544;2023-02-28T14:45:17;17.27;;;10.30;;
1467;SDS011;727;48.892;9.544;2023-02-28T14:47:45;11.80;;;10.50;;
1467;SDS011;727;48.892;9.544;2023-02-28T14:50:18;10.38;;;9.27;;
1467;SDS011;727;48.892;9.544;2023-02-28T14:52:47;13.13;;;10.63;;
1467;SDS011;727;48.892;9.544;2023-02-28T14:55:16;12.02;;;9.88;;
1467;SDS011;727;48.892;9.544;2023-02-28T14:57:51;11.90;;;10.30;;
1467;SDS011;727;48.892;9.544;2023-02-28T15:00:23;11.68;;;10.27;;
1467;SDS011;727;48.892;9.544;2023-02-28T15:02:51;13.65;;;11.18;;
1467;SDS011;727;48.892;9.544;2023-02-28T15:05:32;12.38;;;10.82;;
1467;SDS011;727;48.892;9.544;2023-02-28T15:08:01;18.10;;;11.18;;
1467;SDS011;727;48.892;9.544;2023-02-28T15:10:33;11.48;;;9.88;;
1467;SDS011;727;48.892;9.544;2023-02-28T15:13:02;13.63;;;10.32;;
1467;SDS011;727;48.892;9.544;2023-02-28T15:15:35;10.65;;;9.27;;
1467;SDS011;727;48.892;9.544;2023-02-28T15:18:10;11.93;;;10.55;;
1467;SDS011;727;48.892;9.544;2023-02-28T15:20:43;13.73;;;9.77;;
1467;SDS011;727;48.892;9.544;2023-02-28T15:23:11;17.50;;;10.45;;
1467;SDS011;727;48.892;9.544;2023-02-28T15:25:38;12.25;;;9.52;;
1467;SDS011;727;48.892;9.544;2023-02-28T15:28:10;10.13;;;9.10;;
1467;SDS011;727;48.892;9.544;2023-02-28T15:30:51;10.98;;;9.73;;
1467;SDS011;727;48.892;9.544;2023-02-28T15:33:21;12.68;;;11.38;;
1467;SDS011;727;48.892;9.544;2023-02-28T15:35:50;15.40;;;11.25;;
1467;SDS011;727;48.892;9.544;2023-02-28T15:38:18;11.75;;;9.60;;
1467;SDS011;727;48.892;9.544;2023-02-28T15:40:50;14.82;;;10.95;;
1467;SDS011;727;48.892;9.544;2023-02-28T15:43:27;12.02;;;10.73;;
1467;SDS011;727;48.892;9.544;2023-02-28T15:45:56;11.88;;;10.45;;
1467;SDS011;727;48.892;9.544;2023-02-28T15:48:26;10.75;;;9.75;;
1467;SDS011;727;48.892;9.544;2023-02-28T15:50:55;13.13;;;10.55;;
1467;SDS011;727;48.892;9.544;2023-02-28T15:53:28;12.48;;;9.75;;
1467;SDS011;727;48.892;9.544;2023-02-28T15:56:00;10.57;;;9.57;;
1467;SDS011;727;48.892;9.544;2023-02-28T15:58:30;13.00;;;11.63;;
1467;SDS011;727;48.892;9.544;2023-02-28T16:01:06;12.82;;;10.60;;
1467;SDS011;727;48.892;9.544;2023-02-28T16:03:43;12.10;;;10.02;;
1467;SDS011;727;48.892;9.544;2023-02-28T16:06:25;12.40;;;11.20;;